Time;durP1;ratioP1;P1;durP2;ratioP2;P2;SDS_P1;SDS_P2;PMS_P1;PMS_P2;Temp;Humidity;BMP_temperature;BMP_pressure;BME280_temperature;BME280_humidity;BME280_pressure;Samples;Min_cycle;Max_cycle;Signal;HPM_P1;HPM_P2
2022/11/22 00:01:30;;;;;;;28.52;15.23;;;2.80;99.90;;;;;;4978289;28;20497;-78
2022/11/22 00:03:55;;;;;;;27.55;15.30;;;2.70;99.90;;;;;;4974329;28;20042;-79
2022/11/22 00:06:21;;;;;;;29.05;15.25;;;2.70;99.90;;;;;;4974906;28;20038;-79
2022/11/22 00:08:47;;;;;;;28.08;15.73;;;2.70;99.90;;;;;;4973288;28;20042;-79
2022/11/22 00:11:12;;;;;;;27.10;14.88;;;2.80;99.90;;;;;;4989221;28;20138;-79
2022/11/22 00:13:38;;;;;;;28.70;15.77;;;2.80;99.90;;;;;;4976672;28;20132;-79
2022/11/22 00:16:03;;;;;;;29.20;15.55;;;2.80;99.90;;;;;;4979806;28;20118;-79
2022/11/22 00:18:29;;;;;;;26.42;15.25;;;2.80;99.90;;;;;;4973981;28;20169;-79
2022/11/22 00:20:55;;;;;;;28.98;15.35;;;2.80;99.90;;;;;;4973442;28;20588;-78
2022/11/22 00:23:21;;;;;;;27.33;14.57;;;2.70;99.90;;;;;;4974215;28;20095;-79
2022/11/22 00:25:47;;;;;;;26.23;14.23;;;2.70;99.90;;;;;;4973965;28;20049;-78
2022/11/22 00:28:12;;;;;;;31.15;16.02;;;2.70;99.90;;;;;;4973052;28;20100;-79
2022/11/22 00:30:38;;;;;;;29.30;15.05;;;2.70;99.90;;;;;;4974425;28;20046;-77
2022/11/22 00:33:04;;;;;;;28.98;15.15;;;2.70;99.90;;;;;;5006769;28;20042;-79
2022/11/22 00:35:29;;;;;;;29.77;15.70;;;2.70;99.90;;;;;;4988629;28;20046;-79
2022/11/22 00:37:55;;;;;;;28.60;15.07;;;2.70;99.90;;;;;;4976884;28;20159;-78
2022/11/22 00:40:21;;;;;;;29.00;15.52;;;2.70;99.90;;;;;;4977144;28;20040;-80
2022/11/22 00:42:46;;;;;;;29.95;15.90;;;2.70;99.90;;;;;;4977851;28;20136;-79
2022/11/22 00:45:12;;;;;;;28.45;15.55;;;2.70;99.90;;;;;;5009092;28;20054;-81
2022/11/22 00:47:37;;;;;;;28.42;15.73;;;2.60;99.90;;;;;;4960515;28;20050;-80
2022/11/22 00:50:04;;;;;;;27.67;15.77;;;2.60;99.90;;;;;;4974414;28;20042;-79
2022/11/22 00:52:29;;;;;;;28.60;15.70;;;2.60;99.90;;;;;;4977374;28;20038;-80
2022/11/22 00:54:55;;;;;;;28.05;16.30;;;2.60;99.90;;;;;;4977112;28;20042;-81
2022/11/22 00:57:21;;;;;;;30.55;16.63;;;2.60;99.90;;;;;;4963305;28;20042;-78
2022/11/22 00:59:46;;;;;;;32.17;16.80;;;2.60;99.90;;;;;;4976299;28;20068;-79
2022/11/22 01:02:12;;;;;;;29.25;15.70;;;2.50;99.90;;;;;;4977111;28;20038;-78
2022/11/22 01:04:37;;;;;;;30.00;16.58;;;2.50;99.90;;;;;;4974004;28;20043;-78
2022/11/22 01:07:03;;;;;;;30.77;17.55;;;2.50;99.90;;;;;;4974358;28;20049;-81
2022/11/22 01:09:28;;;;;;;30.63;15.85;;;2.50;99.90;;;;;;4975961;28;20034;-78
2022/11/22 01:11:54;;;;;;;32.35;16.73;;;2.50;99.90;;;;;;4979081;28;20508;-79
2022/11/22 01:14:20;;;;;;;31.77;15.98;;;2.50;99.90;;;;;;4979163;28;20050;-78
2022/11/22 01:16:46;;;;;;;33.80;16.52;;;2.50;99.90;;;;;;4976360;28;20113;-81
2022/11/22 01:19:12;;;;;;;27.55;15.68;;;2.50;99.90;;;;;;4960632;28;20038;-79
2022/11/22 01:21:37;;;;;;;29.27;16.67;;;2.50;99.90;;;;;;5009997;28;20447;-79
2022/11/22 01:24:03;;;;;;;32.25;15.50;;;2.50;99.90;;;;;;4976088;28;20131;-80
2022/11/22 01:26:29;;;;;;;30.77;16.25;;;2.50;99.90;;;;;;4975889;28;20176;-78
2022/11/22 01:28:54;;;;;;;34.25;16.13;;;2.50;99.90;;;;;;4978980;28;20046;-78
2022/11/22 01:31:20;;;;;;;30.02;15.98;;;2.50;99.90;;;;;;4976650;28;20049;-78
2022/11/22 01:33:45;;;;;;;31.73;16.83;;;2.50;99.90;;;;;;5009227;28;20046;-78
2022/11/22 01:36:11;;;;;;;32.35;16.50;;;2.50;99.90;;;;;;5008279;28;20129;-78
2022/11/22 01:38:36;;;;;;;30.08;15.52;;;2.50;99.90;;;;;;4976810;28;20076;-78
2022/11/22 01:41:02;;;;;;;32.60;16.92;;;2.50;99.90;;;;;;5009574;28;20042;-78
2022/11/22 01:43:28;;;;;;;32.28;16.40;;;2.50;99.90;;;;;;4975990;28;20042;-79
2022/11/22 01:45:54;;;;;;;33.15;17.77;;;2.50;99.90;;;;;;4976273;28;20042;-78
2022/11/22 01:48:30;;;;;;;32.03;16.85;;;2.50;99.90;;;;;;4973196;28;20451;-79
2022/11/22 01:51:04;;;;;;;32.30;17.08;;;2.50;99.90;;;;;;5000986;28;20042;-78
2022/11/22 01:53:32;;;;;;;;;;;2.50;99.90;;;;;;4968667;28;20600;-79
2022/11/22 01:56:00;;;;;;;34.65;16.58;;;2.50;99.90;;;;;;4976257;28;19964;-78
2022/11/22 01:58:28;;;;;;;30.42;16.92;;;2.50;99.90;;;;;;4975365;28;20046;-78
2022/11/22 02:00:55;;;;;;;31.48;16.98;;;2.50;99.90;;;;;;4977226;28;20039;-78
2022/11/22 02:03:21;;;;;;;33.45;18.83;;;2.50;99.90;;;;;;4960376;28;20046;-77
2022/11/22 02:05:48;;;;;;;32.78;17.35;;;2.50;99.90;;;;;;4976039;28;20049;-78
2022/11/22 02:08:21;;;;;;;33.67;17.60;;;2.50;99.90;;;;;;4975092;28;20042;-78
2022/11/22 02:10:49;;;;;;;33.95;17.98;;;2.50;99.90;;;;;;4975496;28;20512;-78
2022/11/22 02:13:18;;;;;;;35.97;17.77;;;2.50;99.90;;;;;;4959175;28;20038;-78
2022/11/22 02:15:43;;;;;;;36.47;17.73;;;2.50;99.90;;;;;;4979240;28;20038;-79
2022/11/22 02:18:09;;;;;;;34.22;17.92;;;2.60;99.90;;;;;;4974477;28;20034;-77
2022/11/22 02:20:36;;;;;;;33.28;17.98;;;2.80;99.90;;;;;;4976003;28;20045;-77
2022/11/22 02:23:08;;;;;;;34.97;17.95;;;2.60;99.90;;;;;;4975674;28;20084;-78
2022/11/22 02:25:39;;;;;;;33.80;17.58;;;2.60;99.90;;;;;;4958787;28;20039;-76
2022/11/22 02:28:09;;;;;;;39.15;18.10;;;2.60;99.90;;;;;;4975630;28;20054;-78
2022/11/22 02:30:39;;;;;;;33.85;18.52;;;2.60;99.90;;;;;;4974347;28;20444;-78
2022/11/22 02:33:05;;;;;;;32.63;17.75;;;2.60;99.90;;;;;;4961277;28;20109;-76
2022/11/22 02:35:31;;;;;;;34.72;17.95;;;2.60;99.90;;;;;;4974523;28;20121;-77
2022/11/22 02:37:59;;;;;;;36.67;18.25;;;2.60;99.90;;;;;;4974995;28;20065;-77
2022/11/22 02:40:28;;;;;;;33.05;17.52;;;2.60;99.90;;;;;;4975639;28;20409;-77
2022/11/22 02:43:01;;;;;;;33.75;17.80;;;2.60;99.90;;;;;;4975685;28;20404;-78
2022/11/22 02:45:27;;;;;;;34.10;18.52;;;2.60;99.90;;;;;;4975529;28;20129;-78
2022/11/22 02:48:02;;;;;;;31.02;16.70;;;2.60;99.90;;;;;;4972985;28;20130;-79
2022/11/22 02:50:28;;;;;;;34.08;16.85;;;2.70;99.90;;;;;;4958290;28;20052;-77
2022/11/22 02:52:53;;;;;;;36.28;19.70;;;2.70;99.90;;;;;;4975281;28;20133;-78
2022/11/22 02:55:19;;;;;;;32.72;18.13;;;2.70;99.90;;;;;;5007809;28;20129;-78
2022/11/22 02:57:44;;;;;;;37.90;18.50;;;2.70;99.90;;;;;;4980275;28;20042;-76
2022/11/22 03:00:10;;;;;;;33.67;18.17;;;2.70;99.90;;;;;;4974631;28;20465;-76
2022/11/22 03:02:36;;;;;;;33.38;18.60;;;2.70;99.90;;;;;;4981362;28;20034;-77
2022/11/22 03:05:01;;;;;;;38.03;17.98;;;2.70;99.90;;;;;;5006639;28;20451;-77
2022/11/22 03:07:27;;;;;;;35.05;18.95;;;2.70;99.90;;;;;;4992254;28;20045;-76
2022/11/22 03:09:52;;;;;;;32.20;17.25;;;2.70;99.90;;;;;;4974740;28;20129;-77
2022/11/22 03:12:18;;;;;;;32.45;17.33;;;2.70;99.90;;;;;;4974695;28;20100;-76
2022/11/22 03:14:43;;;;;;;34.55;17.45;;;2.70;99.90;;;;;;5013549;28;20038;-76
2022/11/22 03:17:09;;;;;;;33.42;17.88;;;2.80;99.90;;;;;;4981756;28;20038;-77
2022/11/22 03:19:35;;;;;;;31.75;16.42;;;2.80;99.90;;;;;;4974312;28;20054;-77
2022/11/22 03:22:01;;;;;;;30.92;16.48;;;2.80;99.90;;;;;;4974634;28;20056;-76
2022/11/22 03:24:26;;;;;;;33.78;17.15;;;2.80;99.90;;;;;;4974826;28;20129;-77
2022/11/22 03:26:52;;;;;;;32.95;17.48;;;2.80;99.90;;;;;;4974903;28;20411;-78
2022/11/22 03:29:17;;;;;;;33.92;17.10;;;2.80;99.90;;;;;;5006841;28;20125;-76
2022/11/22 03:31:43;;;;;;;32.33;18.25;;;2.90;99.90;;;;;;4964887;28;20424;-77
2022/11/22 03:34:11;;;;;;;34.08;17.67;;;2.90;99.90;;;;;;4974298;28;20038;-77
2022/11/22 03:36:36;;;;;;;31.13;16.95;;;2.90;99.90;;;;;;4974492;28;20113;-76
2022/11/22 03:39:02;;;;;;;31.10;16.48;;;2.90;99.90;;;;;;5006005;28;20070;-76
2022/11/22 03:41:27;;;;;;;31.08;17.00;;;2.90;99.90;;;;;;5006927;28;20125;-78
2022/11/22 03:43:53;;;;;;;33.17;16.88;;;2.90;99.90;;;;;;4974757;28;20100;-77
2022/11/22 03:46:18;;;;;;;31.67;17.33;;;2.90;99.90;;;;;;4989247;28;20046;-77
2022/11/22 03:48:44;;;;;;;31.80;17.10;;;2.90;99.90;;;;;;4955028;28;20460;-77
2022/11/22 03:51:10;;;;;;;31.48;17.20;;;3.00;99.90;;;;;;4960262;28;20046;-76
2022/11/22 03:53:36;;;;;;;28.75;16.13;;;3.00;99.90;;;;;;4974352;28;20046;-77
2022/11/22 03:56:02;;;;;;;33.22;17.45;;;3.00;99.90;;;;;;4989739;28;20053;-77
2022/11/22 03:58:27;;;;;;;33.47;17.17;;;3.00;99.90;;;;;;4972759;28;20412;-77
2022/11/22 04:00:53;;;;;;;36.20;18.17;;;3.00;99.90;;;;;;4990779;28;20101;-77
2022/11/22 04:03:18;;;;;;;29.10;16.00;;;3.00;99.90;;;;;;5005701;28;20038;-76
2022/11/22 04:05:44;;;;;;;30.67;16.17;;;3.00;99.90;;;;;;4974218;28;20046;-77
2022/11/22 04:08:10;;;;;;;32.45;16.95;;;3.00;99.90;;;;;;4974054;28;20090;-77
2022/11/22 04:10:35;;;;;;;31.70;17.42;;;3.10;99.90;;;;;;5006617;28;20034;-77
2022/11/22 04:13:01;;;;;;;32.33;16.35;;;3.00;99.90;;;;;;5008312;28;20046;-77
2022/11/22 04:15:26;;;;;;;33.10;17.38;;;3.10;99.90;;;;;;4980416;28;20053;-78
2022/11/22 04:17:52;;;;;;;32.03;16.27;;;3.10;99.90;;;;;;4977210;28;20042;-77
2022/11/22 04:23:13;;;;;;;32.70;16.90;;;3.10;99.90;;;;;;4977842;28;20459;-78
2022/11/22 04:25:41;;;;;;;28.98;15.95;;;3.10;99.90;;;;;;4980896;28;20530;-77
2022/11/22 04:28:08;;;;;;;29.35;16.58;;;3.10;99.90;;;;;;4993635;28;20050;-77
2022/11/22 04:33:19;;;;;;;30.00;16.70;;;3.20;99.90;;;;;;5008054;28;20049;-77
2022/11/22 04:35:45;;;;;;;29.48;16.55;;;3.20;99.90;;;;;;4984154;28;20057;-78
2022/11/22 04:38:12;;;;;;;33.65;17.35;;;3.20;99.90;;;;;;4977413;28;20042;-77
2022/11/22 04:40:38;;;;;;;32.45;17.70;;;3.20;99.90;;;;;;4977601;28;20049;-77
2022/11/22 04:45:49;;;;;;;30.98;16.40;;;3.20;99.90;;;;;;5008164;28;20420;-78
2022/11/22 04:48:15;;;;;;;34.05;17.45;;;3.30;99.90;;;;;;4958594;28;20038;-78
2022/11/22 04:53:28;;;;;;;30.08;16.95;;;3.30;99.90;;;;;;5009604;28;20053;-77
2022/11/22 04:55:54;;;;;;;37.22;18.17;;;3.30;99.90;;;;;;4977300;28;20043;-78
2022/11/22 04:58:20;;;;;;;32.72;17.95;;;3.30;99.90;;;;;;4978595;28;20518;-77
2022/11/22 05:00:46;;;;;;;31.83;17.75;;;3.30;99.90;;;;;;4976947;28;20030;-77
2022/11/22 05:03:11;;;;;;;32.55;18.30;;;3.30;99.90;;;;;;4966662;28;20121;-77
2022/11/22 05:05:39;;;;;;;32.50;17.23;;;3.30;99.90;;;;;;4961484;28;20117;-78
2022/11/22 05:08:05;;;;;;;32.88;18.17;;;3.40;99.90;;;;;;4978274;28;20044;-77
2022/11/22 05:10:55;;;;;;;31.55;17.45;;;3.40;99.90;;;;;;4976770;28;20101;-77
2022/11/22 05:13:18;;;;;;;32.47;17.65;;;3.40;99.90;;;;;;4976825;28;20042;-77
2022/11/22 05:15:43;;;;;;;32.88;17.73;;;3.40;99.90;;;;;;5009427;28;20030;-77
2022/11/22 05:18:09;;;;;;;35.35;17.90;;;3.40;99.90;;;;;;4967002;28;20091;-79
2022/11/22 05:20:35;;;;;;;34.00;18.15;;;3.40;99.90;;;;;;5007959;28;20053;-78
2022/11/22 05:25:44;;;;;;;;;;;3.40;99.90;;;;;;4989105;28;20046;-77
2022/11/22 05:28:10;;;;;;;34.60;18.25;;;3.40;99.90;;;;;;5000049;28;19917;-78
2022/11/22 05:30:38;;;;;;;34.22;18.23;;;3.50;99.90;;;;;;5007189;28;20050;-77
2022/11/22 05:33:04;;;;;;;33.00;17.50;;;3.40;99.90;;;;;;4976698;28;20558;-77
2022/11/22 05:35:29;;;;;;;29.45;17.52;;;3.40;99.90;;;;;;4977635;28;20038;-77
2022/11/22 05:37:56;;;;;;;32.83;18.08;;;3.50;99.90;;;;;;4983282;28;20046;-77
2022/11/22 05:40:22;;;;;;;31.75;16.55;;;3.50;99.90;;;;;;4979112;28;20438;-78
2022/11/22 05:42:47;;;;;;;34.60;17.42;;;3.50;99.90;;;;;;4976402;28;20037;-78
2022/11/22 05:45:13;;;;;;;38.03;18.55;;;3.50;99.90;;;;;;4977420;28;20413;-78
2022/11/22 05:47:38;;;;;;;35.38;18.08;;;3.60;99.90;;;;;;4975987;28;20053;-78
2022/11/22 05:50:04;;;;;;;31.17;17.38;;;3.60;99.90;;;;;;4978838;28;20045;-78
2022/11/22 05:52:30;;;;;;;33.00;18.27;;;3.60;99.90;;;;;;4967783;28;20506;-77
2022/11/22 05:54:56;;;;;;;33.17;17.88;;;3.60;99.90;;;;;;4981344;28;20049;-77
2022/11/22 05:57:21;;;;;;;29.17;17.55;;;3.60;99.90;;;;;;4976276;28;20050;-77
2022/11/22 05:59:47;;;;;;;34.28;17.83;;;3.60;99.90;;;;;;4977314;28;20043;-78
2022/11/22 06:02:12;;;;;;;30.65;17.90;;;3.70;99.90;;;;;;4976082;28;20122;-77
2022/11/22 06:04:38;;;;;;;30.52;17.42;;;3.70;99.90;;;;;;4975326;28;20046;-78
2022/11/22 06:07:03;;;;;;;32.97;17.67;;;3.60;99.90;;;;;;4975235;28;20129;-77
2022/11/22 06:09:29;;;;;;;28.95;16.65;;;3.70;99.90;;;;;;4975114;28;20078;-78
2022/11/22 06:11:54;;;;;;;31.58;17.10;;;3.70;99.90;;;;;;4981748;28;20060;-78
2022/11/22 06:14:20;;;;;;;36.13;17.58;;;3.70;99.90;;;;;;4980454;28;20069;-77
2022/11/22 06:16:45;;;;;;;34.78;18.15;;;3.70;99.90;;;;;;4975677;28;21280;-78
2022/11/22 06:19:11;;;;;;;29.20;16.92;;;3.70;99.90;;;;;;4959462;28;20038;-78
2022/11/22 06:21:37;;;;;;;31.50;18.23;;;3.70;99.90;;;;;;4960041;28;20472;-78
2022/11/22 06:24:03;;;;;;;32.22;17.08;;;3.70;99.90;;;;;;4956367;28;20117;-78
2022/11/22 06:26:28;;;;;;;35.40;17.70;;;3.70;99.90;;;;;;4992321;28;20054;-77
2022/11/22 06:28:54;;;;;;;34.72;17.50;;;3.70;99.90;;;;;;4983393;28;20124;-78
2022/11/22 06:31:22;;;;;;;28.95;16.45;;;3.70;99.90;;;;;;4976142;28;20046;-78
2022/11/22 06:33:48;;;;;;;31.20;16.48;;;3.80;99.90;;;;;;4994097;28;20744;-78
2022/11/22 06:36:19;;;;;;;27.65;15.95;;;3.80;99.90;;;;;;4974191;28;20056;-77
2022/11/22 06:38:46;;;;;;;31.20;16.85;;;3.80;99.90;;;;;;4974994;28;20567;-77
2022/11/22 06:41:19;;;;;;;29.35;16.27;;;3.80;99.90;;;;;;4991474;28;20315;-79
2022/11/22 06:43:47;;;;;;;32.47;17.17;;;3.80;99.90;;;;;;4975368;28;20483;-78
2022/11/22 06:46:13;;;;;;;29.20;17.05;;;3.80;99.90;;;;;;4971621;28;20073;-77
2022/11/22 06:48:41;;;;;;;28.13;16.63;;;3.90;99.90;;;;;;4991208;28;20042;-78
2022/11/22 06:51:10;;;;;;;32.20;17.33;;;3.90;99.90;;;;;;4959154;28;20049;-77
2022/11/22 06:53:36;;;;;;;32.85;17.73;;;3.90;99.90;;;;;;4974845;28;20049;-78
2022/11/22 06:56:11;;;;;;;27.80;16.65;;;3.90;99.90;;;;;;4968522;28;20413;-77
2022/11/22 06:58:37;;;;;;;28.35;16.05;;;3.90;99.90;;;;;;4971858;28;20093;-78
2022/11/22 07:01:05;;;;;;;30.95;17.45;;;3.90;99.90;;;;;;4952803;28;20042;-77
2022/11/22 07:03:32;;;;;;;31.67;16.70;;;3.90;99.90;;;;;;4977742;28;20042;-77
2022/11/22 07:05:58;;;;;;;32.25;16.92;;;3.90;99.90;;;;;;4976721;28;20049;-78
2022/11/22 07:08:24;;;;;;;34.80;16.17;;;3.90;99.90;;;;;;4974272;28;20053;-77
2022/11/22 07:10:49;;;;;;;29.30;15.68;;;4.00;99.90;;;;;;4975109;28;20587;-78
2022/11/22 07:13:15;;;;;;;27.40;15.57;;;4.00;99.90;;;;;;4991389;28;20049;-77
2022/11/22 07:15:40;;;;;;;29.10;16.38;;;4.00;99.90;;;;;;4974777;28;20117;-78
2022/11/22 07:18:06;;;;;;;31.08;16.85;;;4.10;99.90;;;;;;4974629;28;20074;-77
2022/11/22 07:20:32;;;;;;;31.75;16.13;;;4.10;99.90;;;;;;4972829;28;20515;-78
2022/11/22 07:22:57;;;;;;;26.98;15.70;;;4.10;99.90;;;;;;4974375;28;20100;-77
2022/11/22 07:25:23;;;;;;;32.15;15.48;;;4.10;99.90;;;;;;4991297;28;20411;-77
2022/11/22 07:27:51;;;;;;;28.35;16.25;;;4.10;99.90;;;;;;4977446;28;20037;-77
2022/11/22 07:30:17;;;;;;;28.95;15.38;;;4.20;99.90;;;;;;4957571;28;20125;-77
2022/11/22 07:32:46;;;;;;;29.63;14.75;;;4.20;99.90;;;;;;4973483;28;20128;-77
2022/11/22 07:35:12;;;;;;;27.58;15.00;;;4.20;99.90;;;;;;4990399;28;20077;-77
2022/11/22 07:37:37;;;;;;;27.67;14.73;;;4.20;99.90;;;;;;4990597;28;20046;-78
2022/11/22 07:40:03;;;;;;;28.95;14.90;;;4.20;99.90;;;;;;4973965;28;20049;-77
2022/11/22 07:42:29;;;;;;;25.58;14.45;;;4.30;99.90;;;;;;4995853;28;20061;-78
2022/11/22 07:44:54;;;;;;;26.05;13.75;;;4.40;99.90;;;;;;4978170;28;20100;-77
2022/11/22 07:47:20;;;;;;;29.15;13.10;;;4.40;99.90;;;;;;4974351;28;20042;-77
2022/11/22 07:49:45;;;;;;;30.15;13.52;;;4.40;99.90;;;;;;5010700;28;20527;-77
2022/11/22 07:52:11;;;;;;;22.52;12.02;;;4.40;99.90;;;;;;4977465;28;20530;-77
2022/11/22 07:54:36;;;;;;;27.65;10.60;;;4.50;99.90;;;;;;4978438;28;20050;-77
2022/11/22 07:57:02;;;;;;;26.77;10.43;;;4.70;99.90;;;;;;4994374;28;20084;-77
2022/11/22 07:59:27;;;;;;;20.92;9.73;;;4.60;99.90;;;;;;4978986;28;20035;-78
2022/11/22 08:01:53;;;;;;;26.42;10.57;;;4.70;99.90;;;;;;4978089;28;20034;-78
2022/11/22 08:04:18;;;;;;;24.10;10.30;;;4.70;99.90;;;;;;5007627;28;20117;-77
2022/11/22 08:06:44;;;;;;;22.55;9.32;;;4.80;99.90;;;;;;4990383;28;20051;-77
2022/11/22 08:09:10;;;;;;;24.95;9.93;;;4.90;99.90;;;;;;5007687;28;20053;-78
2022/11/22 08:11:35;;;;;;;22.73;9.73;;;4.90;99.90;;;;;;4976691;28;20054;-78
2022/11/22 08:14:02;;;;;;;22.85;9.18;;;4.90;99.90;;;;;;4977244;28;20050;-78
2022/11/22 08:16:27;;;;;;;21.70;8.68;;;4.90;99.90;;;;;;4976694;28;20038;-77
2022/11/22 08:18:53;;;;;;;19.80;8.60;;;4.90;99.90;;;;;;4975830;28;20048;-77
2022/11/22 08:21:18;;;;;;;28.65;9.45;;;5.00;99.90;;;;;;4976275;28;20044;-77
2022/11/22 08:23:47;;;;;;;20.70;7.78;;;5.00;99.90;;;;;;4983354;28;20046;-78
2022/11/22 08:26:15;;;;;;;21.98;8.02;;;5.00;99.90;;;;;;4995433;28;20252;-78
2022/11/22 08:28:42;;;;;;;18.23;7.43;;;5.00;99.90;;;;;;4995538;28;20049;-78
2022/11/22 08:31:11;;;;;;;18.95;7.70;;;5.10;99.90;;;;;;4984869;28;20042;-78
2022/11/22 08:33:37;;;;;;;20.83;7.57;;;5.10;99.90;;;;;;4961903;28;20662;-78
2022/11/22 08:36:03;;;;;;;21.15;7.53;;;5.10;99.90;;;;;;4993884;28;20078;-78
2022/11/22 08:38:29;;;;;;;13.68;7.05;;;5.10;99.90;;;;;;5010126;28;20089;-77
2022/11/22 08:40:54;;;;;;;19.27;6.93;;;5.10;99.90;;;;;;4977886;28;20073;-77
2022/11/22 08:43:20;;;;;;;18.45;7.22;;;5.00;99.90;;;;;;4977454;28;20057;-77
2022/11/22 08:45:52;;;;;;;18.30;7.03;;;5.00;99.90;;;;;;4995401;28;20084;-78
2022/11/22 08:48:17;;;;;;;19.85;6.20;;;5.10;99.90;;;;;;5008080;28;20053;-79
2022/11/22 08:50:49;;;;;;;16.95;6.57;;;5.00;99.90;;;;;;4987725;28;20038;-79
2022/11/22 08:53:15;;;;;;;16.02;6.00;;;5.10;99.90;;;;;;4977493;28;20050;-78
2022/11/22 08:55:41;;;;;;;19.48;6.05;;;5.10;99.90;;;;;;4977413;28;20046;-78
2022/11/22 08:58:06;;;;;;;16.85;6.00;;;5.10;99.90;;;;;;4994936;28;20066;-79
2022/11/22 09:00:32;;;;;;;16.90;5.90;;;5.20;99.90;;;;;;4994134;28;20128;-79
2022/11/22 09:02:58;;;;;;;13.65;5.22;;;5.10;99.90;;;;;;4986796;28;20041;-79
2022/11/22 09:05:23;;;;;;;15.90;6.07;;;5.10;99.90;;;;;;4994030;28;20042;-80
2022/11/22 09:07:49;;;;;;;19.73;5.40;;;5.20;99.90;;;;;;4975960;28;20042;-79
2022/11/22 09:10:14;;;;;;;20.05;6.07;;;5.20;99.90;;;;;;4977951;28;20499;-79
2022/11/22 09:12:45;;;;;;;14.70;5.00;;;5.20;99.90;;;;;;4994718;28;20042;-79
2022/11/22 09:15:11;;;;;;;16.10;5.05;;;5.20;99.90;;;;;;4978001;28;20050;-82
2022/11/22 09:17:36;;;;;;;16.48;5.78;;;5.30;99.90;;;;;;4974399;28;20098;-79
2022/11/22 09:20:02;;;;;;;17.08;5.15;;;5.30;99.90;;;;;;4976528;28;20038;-79
2022/11/22 09:22:27;;;;;;;12.35;4.95;;;5.30;99.90;;;;;;4977990;28;20053;-80
2022/11/22 09:24:53;;;;;;;16.05;5.28;;;5.40;99.90;;;;;;4979173;28;20050;-79
2022/11/22 09:27:19;;;;;;;14.95;5.13;;;5.40;99.90;;;;;;4962935;28;20049;-79
2022/11/22 09:29:44;;;;;;;14.68;5.30;;;5.40;99.90;;;;;;4978816;28;20042;-80
2022/11/22 09:32:10;;;;;;;17.85;5.93;;;5.40;99.90;;;;;;4979155;28;20130;-80
2022/11/22 09:34:35;;;;;;;12.50;5.50;;;5.40;99.90;;;;;;4996600;28;20132;-80
2022/11/22 09:37:01;;;;;;;13.93;5.50;;;5.40;99.90;;;;;;4980179;28;20044;-80
2022/11/22 09:39:26;;;;;;;11.82;5.72;;;5.40;99.90;;;;;;4979360;28;20041;-79
2022/11/22 09:42:17;;;;;;;13.57;5.82;;;5.40;99.90;;;;;;4979319;28;20039;-80
2022/11/22 09:45:33;;;;;;;14.18;6.07;;;5.40;99.90;;;;;;4962539;28;20051;-79
2022/11/22 09:48:39;;;;;;;19.88;5.75;;;5.40;99.90;;;;;;4973132;28;20042;-79
2022/11/22 09:51:05;;;;;;;11.40;4.65;;;5.40;99.90;;;;;;4944950;28;20381;-79
2022/11/22 09:53:51;;;;;;;12.15;5.13;;;5.40;99.90;;;;;;4977661;28;20185;-79
2022/11/22 09:56:20;;;;;;;13.02;5.22;;;5.50;99.90;;;;;;4944399;28;20042;-79
2022/11/22 09:58:50;;;;;;;14.60;4.32;;;5.50;99.90;;;;;;4973243;28;20495;-80
2022/11/22 10:01:27;;;;;;;11.95;4.30;;;5.50;99.90;;;;;;4978982;28;20511;-79
2022/11/22 10:04:07;;;;;;;9.75;3.70;;;5.50;99.90;;;;;;4977985;28;20520;-79
2022/11/22 10:06:41;;;;;;;13.50;4.18;;;5.50;99.90;;;;;;4968769;28;20405;-79
2022/11/22 10:09:32;;;;;;;12.68;3.85;;;5.50;99.90;;;;;;4952960;28;20038;-78
2022/11/22 10:12:10;;;;;;;12.25;4.00;;;5.50;99.90;;;;;;4953831;28;20508;-79
2022/11/22 10:14:56;;;;;;;12.07;3.75;;;5.50;99.90;;;;;;4976224;28;20038;-78
2022/11/22 10:17:49;;;;;;;7.32;3.30;;;5.60;99.90;;;;;;4976638;28;20117;-79
2022/11/22 10:20:27;;;;;;;14.15;3.83;;;5.60;99.90;;;;;;4974679;28;20053;-79
2022/11/22 10:22:52;;;;;;;7.38;3.05;;;5.70;99.90;;;;;;4976371;28;20039;-79
2022/11/22 10:25:21;;;;;;;9.00;3.10;;;5.60;99.90;;;;;;4993581;28;20037;-79
2022/11/22 10:27:56;;;;;;;9.60;2.80;;;5.70;99.90;;;;;;5009158;28;20078;-78
2022/11/22 10:30:24;;;;;;;7.55;2.53;;;5.80;99.90;;;;;;5008831;28;20045;-79
2022/11/22 10:32:58;;;;;;;7.20;2.78;;;5.70;99.90;;;;;;4973170;28;20042;-79
2022/11/22 10:35:47;;;;;;;9.90;2.90;;;5.80;99.90;;;;;;4962722;28;20074;-79
2022/11/22 10:38:38;;;;;;;9.55;2.85;;;5.80;99.90;;;;;;4945668;28;20039;-79
2022/11/22 10:41:27;;;;;;;10.10;2.88;;;5.90;99.90;;;;;;4975112;28;20504;-78
2022/11/22 10:43:58;;;;;;;9.38;2.90;;;5.90;99.90;;;;;;4987639;28;20050;-78
2022/11/22 10:46:30;;;;;;;11.85;3.10;;;6.10;99.90;;;;;;4974441;28;20054;-78
2022/11/22 10:49:14;;;;;;;10.73;3.05;;;6.30;99.90;;;;;;4974787;28;20050;-78
2022/11/22 10:52:05;;;;;;;8.32;2.90;;;6.30;99.90;;;;;;4975794;28;20132;-78
2022/11/22 10:54:49;;;;;;;8.25;3.05;;;6.40;99.90;;;;;;4959282;28;20042;-78
2022/11/22 10:57:44;;;;;;;6.22;2.55;;;6.50;99.90;;;;;;4974733;28;20121;-78
2022/11/22 11:00:23;;;;;;;7.60;2.40;;;6.50;99.90;;;;;;4946196;28;20100;-78
2022/11/22 11:03:10;;;;;;;7.47;2.53;;;6.50;99.90;;;;;;4970388;28;20051;-78
2022/11/22 11:05:48;;;;;;;6.65;2.80;;;6.40;99.90;;;;;;4959016;28;20122;-79
2022/11/22 11:08:21;;;;;;;9.05;2.65;;;6.40;99.90;;;;;;4974012;28;20054;-79
2022/11/22 11:10:47;;;;;;;9.20;2.60;;;6.50;99.90;;;;;;4974733;28;20408;-78
2022/11/22 11:13:23;;;;;;;9.15;2.50;;;6.50;99.90;;;;;;4966526;28;20084;-79
2022/11/22 11:15:58;;;;;;;7.13;2.80;;;6.50;99.90;;;;;;4968624;28;20049;-79
2022/11/22 11:18:31;;;;;;;9.60;2.40;;;6.40;99.90;;;;;;4973440;28;20047;-78
2022/11/22 11:20:57;;;;;;;8.95;2.70;;;6.40;99.90;;;;;;5006482;28;20050;-78
2022/11/22 11:23:22;;;;;;;10.63;2.80;;;6.40;99.90;;;;;;4974768;28;20042;-79
2022/11/22 11:25:49;;;;;;;10.55;2.42;;;6.40;99.90;;;;;;4991306;28;20034;-78
2022/11/22 11:28:22;;;;;;;8.68;2.30;;;6.50;99.90;;;;;;4958759;28;20060;-79
2022/11/22 11:30:52;;;;;;;8.57;2.30;;;6.60;99.90;;;;;;4974532;28;20445;-79
2022/11/22 11:33:30;;;;;;;9.90;2.40;;;6.50;99.90;;;;;;4974243;28;20073;-78
2022/11/22 11:36:05;;;;;;;6.05;2.13;;;6.60;99.90;;;;;;4974379;28;20045;-78
2022/11/22 11:38:32;;;;;;;8.43;2.42;;;6.50;99.90;;;;;;4974120;28;20069;-78
2022/11/22 11:41:16;;;;;;;6.68;2.35;;;6.60;99.90;;;;;;4990830;28;20069;-78
2022/11/22 11:43:43;;;;;;;;;;;6.60;99.90;;;;;;4991093;28;20113;-78
2022/11/22 11:46:17;;;;;;;8.70;2.47;;;6.70;99.90;;;;;;5006922;28;19917;-78
2022/11/22 11:48:43;;;;;;;12.05;2.65;;;6.70;99.90;;;;;;4974024;28;20408;-79
2022/11/22 11:51:24;;;;;;;8.10;2.20;;;6.70;99.90;;;;;;4974126;28;20038;-79
2022/11/22 11:54:03;;;;;;;12.50;2.60;;;6.80;99.90;;;;;;4956471;28;20065;-78
2022/11/22 11:56:33;;;;;;;8.85;2.55;;;6.90;99.90;;;;;;4972157;28;20114;-79
2022/11/22 11:59:06;;;;;;;8.98;2.72;;;6.90;99.90;;;;;;4972193;28;20047;-78
2022/11/22 12:01:34;;;;;;;7.35;2.47;;;7.00;99.90;;;;;;4973281;28;20041;-78
2022/11/22 12:04:04;;;;;;;6.22;2.00;;;7.10;99.90;;;;;;4972240;28;20415;-79
2022/11/22 12:06:32;;;;;;;6.80;2.25;;;7.20;99.90;;;;;;4974868;28;20038;-78
2022/11/22 12:08:59;;;;;;;6.57;2.03;;;7.20;99.90;;;;;;4972624;28;20038;-78
2022/11/22 12:11:50;;;;;;;7.57;2.20;;;7.30;99.90;;;;;;4957271;28;20125;-79
2022/11/22 12:14:26;;;;;;;8.25;2.20;;;7.50;99.90;;;;;;4974639;28;20034;-78
2022/11/22 12:16:56;;;;;;;7.40;2.25;;;7.50;99.90;;;;;;4976311;28;20105;-77
2022/11/22 12:19:38;;;;;;;11.43;2.10;;;7.50;99.90;;;;;;4973418;28;20096;-78
2022/11/22 12:22:18;;;;;;;7.47;2.20;;;7.40;99.90;;;;;;4974045;28;20243;-78
2022/11/22 12:24:47;;;;;;;7.15;1.85;;;7.40;99.90;;;;;;4984368;28;20054;-78
2022/11/22 12:27:13;;;;;;;10.57;2.28;;;7.30;99.90;;;;;;5002812;28;20077;-78
2022/11/22 12:29:41;;;;;;;9.45;2.20;;;7.30;99.90;;;;;;4976047;28;20085;-78
2022/11/22 12:32:33;;;;;;;6.30;1.90;;;7.30;99.90;;;;;;4954323;28;20046;-78
2022/11/22 12:35:11;;;;;;;5.38;2.03;;;7.20;99.90;;;;;;4968055;28;20573;-78
2022/11/22 12:37:50;;;;;;;8.05;2.20;;;7.10;99.90;;;;;;4980480;28;20040;-78
2022/11/22 12:40:22;;;;;;;7.60;2.10;;;7.10;99.90;;;;;;5009381;28;20035;-78
2022/11/22 12:42:54;;;;;;;6.40;2.10;;;7.10;99.90;;;;;;4974558;28;20050;-78
2022/11/22 12:45:23;;;;;;;9.73;2.78;;;7.00;99.90;;;;;;4970736;28;20464;-78
2022/11/22 12:47:50;;;;;;;9.25;1.80;;;7.00;99.90;;;;;;4977719;28;20053;-79
2022/11/22 12:50:23;;;;;;;7.60;2.00;;;7.00;99.90;;;;;;4960727;28;20038;-77
2022/11/22 12:52:59;;;;;;;8.73;2.38;;;6.90;99.90;;;;;;4972413;28;20117;-79
2022/11/22 12:55:29;;;;;;;9.05;2.00;;;7.00;99.90;;;;;;4991571;28;20034;-78
2022/11/22 12:58:16;;;;;;;5.75;1.52;;;7.00;99.90;;;;;;4976470;28;20035;-79
2022/11/22 13:01:21;;;;;;;7.63;1.80;;;7.00;99.90;;;;;;4977245;28;20092;-78
2022/11/22 13:04:02;;;;;;;7.32;1.90;;;7.00;99.90;;;;;;4976518;28;20046;-78
2022/11/22 13:06:37;;;;;;;7.25;2.75;;;7.00;99.90;;;;;;4975686;28;20069;-78